Time;durP1;ratioP1;P1;durP2;ratioP2;P2;SDS_P1;SDS_P2;PMS_P1;PMS_P2;Temp;Humidity;BMP_temperature;BMP_pressure;BME280_temperature;BME280_humidity;BME280_pressure;Samples;Min_cycle;Max_cycle;Signal;HPM_P1;HPM_P2
2023/06/10 00:02:01;;;;;;;9.23;8.00;;;;;;;13.51;91.48;96890.75;4956722;28;20098;-77
2023/06/10 00:04:28;;;;;;;8.82;6.70;;;;;;;13.62;90.61;96886.06;4965323;28;20039;-76
2023/06/10 00:06:55;;;;;;;12.93;7.95;;;;;;;13.54;91.30;96890.19;4961198;28;20043;-76
2023/06/10 00:09:22;;;;;;;9.98;7.40;;;;;;;13.32;93.22;96882.44;4959502;28;20043;-76
2023/06/10 00:11:49;;;;;;;9.88;7.25;;;;;;;13.34;93.01;96880.25;4959144;28;20047;-76
2023/06/10 00:14:15;;;;;;;8.93;7.28;;;;;;;13.30;92.20;96887.34;4962036;28;20122;-76
2023/06/10 00:16:44;;;;;;;9.35;7.70;;;;;;;13.19;93.31;96884.69;4951951;28;20039;-76
2023/06/10 00:19:13;;;;;;;9.98;7.60;;;;;;;13.03;94.68;96891.28;4949249;28;20035;-76
2023/06/10 00:21:40;;;;;;;12.23;7.80;;;;;;;12.95;95.52;96888.09;4955770;28;20051;-76
2023/06/10 00:24:11;;;;;;;13.18;8.27;;;;;;;12.90;95.82;96884.56;4962365;28;20459;-76
2023/06/10 00:26:39;;;;;;;;;;;;;;;12.91;95.73;96884.31;4963133;28;20047;-76
2023/06/10 00:29:06;;;;;;;9.85;7.63;;;;;;;12.78;96.41;96885.69;4966115;28;19926;-76
2023/06/10 00:31:37;;;;;;;9.88;7.95;;;;;;;12.71;97.18;96885.19;4962532;28;20039;-76
2023/06/10 00:34:07;;;;;;;11.75;8.40;;;;;;;12.61;97.89;96883.34;4959003;28;20042;-76
2023/06/10 00:36:33;;;;;;;11.02;8.68;;;;;;;12.60;97.88;96882.50;4960766;28;20047;-76
2023/06/10 00:39:00;;;;;;;13.10;8.93;;;;;;;12.65;98.90;96889.00;4958940;28;20050;-76
2023/06/10 00:41:27;;;;;;;15.45;10.38;;;;;;;12.73;97.73;96891.16;4964010;28;20055;-76
2023/06/10 00:43:53;;;;;;;9.90;8.02;;;;;;;12.70;97.23;96886.28;4960620;28;20043;-75
2023/06/10 00:46:23;;;;;;;12.25;7.85;;;;;;;12.66;97.24;96891.47;4961198;28;20073;-76
2023/06/10 00:48:50;;;;;;;11.43;8.63;;;;;;;12.74;97.13;96887.34;4963469;28;20054;-76
2023/06/10 00:51:17;;;;;;;11.73;9.10;;;;;;;12.78;97.23;96888.41;4963377;28;20039;-75
2023/06/10 00:53:44;;;;;;;11.80;7.97;;;;;;;12.76;96.81;96882.47;4962608;28;20124;-76
2023/06/10 00:56:12;;;;;;;11.88;8.05;;;;;;;12.73;97.67;96880.28;4963943;28;20077;-76
2023/06/10 00:58:40;;;;;;;9.57;8.23;;;;;;;12.72;97.34;96886.81;4957121;28;20043;-76
2023/06/10 01:01:06;;;;;;;11.32;7.82;;;;;;;12.69;97.55;96882.75;4959038;28;20054;-76
2023/06/10 01:03:36;;;;;;;9.52;7.93;;;;;;;12.45;99.05;96885.28;4959927;28;20144;-76
2023/06/10 01:06:12;;;;;;;9.90;8.13;;;;;;;12.34;99.88;96885.31;4964846;28;20047;-75
2023/06/10 01:08:50;;;;;;;12.10;8.10;;;;;;;12.43;99.02;96888.28;4949174;28;20050;-76
2023/06/10 01:11:23;;;;;;;13.55;8.57;;;;;;;12.28;99.80;96891.03;4952974;28;20490;-75
2023/06/10 01:13:55;;;;;;;11.10;8.48;;;;;;;12.13;100.00;96886.44;4951770;28;20504;-76
2023/06/10 01:16:23;;;;;;;10.07;8.63;;;;;;;12.04;100.00;96883.44;4954351;28;20097;-75
2023/06/10 01:18:50;;;;;;;11.48;8.02;;;;;;;12.16;100.00;96880.47;4951361;28;20671;-76
2023/06/10 01:21:21;;;;;;;14.55;8.07;;;;;;;12.15;100.00;96881.53;4963021;28;20073;-76
2023/06/10 01:23:48;;;;;;;10.73;8.77;;;;;;;12.18;100.00;96881.00;4959077;28;20130;-76
2023/06/10 01:26:15;;;;;;;9.77;8.45;;;;;;;12.07;100.00;96877.50;4952981;28;20050;-76
2023/06/10 01:28:56;;;;;;;10.25;8.60;;;;;;;12.15;100.00;96878.81;4954119;28;20061;-76
2023/06/10 01:31:43;;;;;;;8.65;7.40;;;;;;;12.13;100.00;96886.44;4957898;28;20490;-76
2023/06/10 01:34:14;;;;;;;10.65;8.50;;;;;;;12.25;100.00;96883.44;4956381;28;20117;-76
2023/06/10 01:36:43;;;;;;;10.52;8.63;;;;;;;12.03;100.00;96881.81;4958614;28;20043;-76
2023/06/10 01:39:11;;;;;;;11.55;8.52;;;;;;;11.80;100.00;96890.22;4958013;28;20046;-75
2023/06/10 01:41:38;;;;;;;13.85;10.48;;;;;;;11.88;100.00;96880.75;4973489;28;20050;-77
2023/06/10 01:44:05;;;;;;;11.20;9.45;;;;;;;11.90;100.00;96888.63;4956437;28;20043;-76
2023/06/10 01:46:31;;;;;;;12.65;9.32;;;;;;;11.90;100.00;96886.69;4963174;28;20045;-76
2023/06/10 01:48:58;;;;;;;11.30;8.73;;;;;;;11.91;100.00;96888.31;4953304;28;20046;-76
2023/06/10 01:51:25;;;;;;;11.43;8.70;;;;;;;11.89;100.00;96887.78;4957554;28;20453;-76
2023/06/10 01:53:51;;;;;;;11.95;9.00;;;;;;;11.80;100.00;96895.66;4960026;28;20035;-76
2023/06/10 01:56:20;;;;;;;10.70;9.13;;;;;;;11.93;100.00;96891.59;4958909;28;20576;-75
2023/06/10 01:58:46;;;;;;;12.18;9.23;;;;;;;11.96;100.00;96890.22;4960511;28;20040;-76
2023/06/10 02:01:14;;;;;;;11.75;8.73;;;;;;;12.02;100.00;96891.84;4938023;28;20053;-76
2023/06/10 02:03:40;;;;;;;13.85;8.85;;;;;;;12.00;100.00;96891.31;4958402;28;20536;-75
2023/06/10 02:06:08;;;;;;;10.65;9.05;;;;;;;12.16;100.00;96894.84;4953906;28;20362;-76
2023/06/10 02:08:35;;;;;;;12.75;9.73;;;;;;;12.08;100.00;96904.34;4964411;28;20054;-76
2023/06/10 02:11:01;;;;;;;9.40;7.70;;;;;;;12.15;100.00;96898.66;4954961;28;20055;-76
2023/06/10 02:13:29;;;;;;;11.10;8.30;;;;;;;12.10;100.00;96899.47;4959057;28;20117;-76
2023/06/10 02:15:55;;;;;;;14.52;8.25;;;;;;;12.12;100.00;96899.19;4953171;28;20216;-76
2023/06/10 02:18:22;;;;;;;10.82;8.75;;;;;;;12.19;100.00;96904.34;4957392;28;20047;-76
2023/06/10 02:20:49;;;;;;;11.05;8.85;;;;;;;12.21;100.00;96899.47;4961889;28;20165;-76
2023/06/10 02:23:15;;;;;;;11.55;8.52;;;;;;;12.10;100.00;96904.09;4957947;28;20058;-76
2023/06/10 02:25:42;;;;;;;10.88;8.63;;;;;;;12.06;100.00;96905.72;4956288;28;20043;-76
2023/06/10 02:28:08;;;;;;;10.25;8.38;;;;;;;12.10;100.00;96904.88;4955252;28;20224;-76
2023/06/10 02:30:35;;;;;;;10.73;8.93;;;;;;;12.16;100.00;96907.63;4962659;28;20030;-76
2023/06/10 02:33:03;;;;;;;9.93;8.32;;;;;;;12.21;100.00;96900.25;4967877;28;20046;-76
2023/06/10 02:35:30;;;;;;;11.00;8.15;;;;;;;12.27;99.91;96908.41;4963270;28;20047;-75
2023/06/10 02:37:56;;;;;;;9.20;7.55;;;;;;;12.35;99.26;96895.06;4962910;28;20034;-76
2023/06/10 02:40:23;;;;;;;8.95;7.82;;;;;;;12.38;99.00;96910.00;4958585;28;20351;-76
2023/06/10 02:42:49;;;;;;;9.05;7.82;;;;;;;12.42;98.64;96916.50;4946482;28;21338;-75
2023/06/10 02:45:16;;;;;;;9.30;8.02;;;;;;;12.38;99.15;96915.44;4951028;28;20067;-76
2023/06/10 02:47:43;;;;;;;8.82;7.63;;;;;;;12.30;98.98;96914.09;4962900;28;20049;-76
2023/06/10 02:50:11;;;;;;;11.13;8.90;;;;;;;11.97;100.00;96925.22;4964656;28;20533;-75
2023/06/10 02:52:48;;;;;;;9.18;7.45;;;;;;;11.93;100.00;96920.59;4953939;28;20039;-75
2023/06/10 02:55:15;;;;;;;10.60;8.25;;;;;;;11.95;100.00;96916.53;4965229;28;20138;-75
2023/06/10 02:57:47;;;;;;;9.98;8.35;;;;;;;12.03;100.00;96922.50;4956066;28;20047;-76
2023/06/10 03:00:16;;;;;;;20.98;11.45;;;;;;;11.93;100.00;96924.16;4954006;28;20046;-76
2023/06/10 03:02:45;;;;;;;12.55;8.40;;;;;;;11.91;100.00;96917.38;4959800;28;20097;-76
2023/06/10 03:05:13;;;;;;;10.15;8.02;;;;;;;11.91;100.00;96929.00;4966463;28;20085;-76
2023/06/10 03:07:42;;;;;;;8.68;7.10;;;;;;;12.03;100.00;96923.34;4958694;28;20406;-75
2023/06/10 03:10:09;;;;;;;9.07;8.13;;;;;;;11.98;100.00;96926.06;4965343;28;20522;-76
2023/06/10 03:12:38;;;;;;;12.20;8.32;;;;;;;11.75;100.00;96928.22;4957097;28;20046;-76
2023/06/10 03:15:05;;;;;;;9.40;7.72;;;;;;;11.69;100.00;96932.00;4960528;28;20540;-75
2023/06/10 03:17:33;;;;;;;9.32;7.72;;;;;;;11.84;100.00;96936.63;4954482;28;20053;-75
2023/06/10 03:19:59;;;;;;;11.13;7.75;;;;;;;11.89;100.00;96930.38;4955250;28;20130;-76
2023/06/10 03:22:26;;;;;;;10.90;7.60;;;;;;;11.89;100.00;96933.91;4968381;28;20525;-76
2023/06/10 03:25:01;;;;;;;9.23;7.55;;;;;;;11.96;100.00;96931.75;4962152;28;20102;-75
2023/06/10 03:27:29;;;;;;;9.18;7.50;;;;;;;11.96;100.00;96936.34;4978796;28;20553;-76
2023/06/10 03:29:58;;;;;;;10.38;7.72;;;;;;;12.03;99.93;96927.94;4963177;28;20127;-75
2023/06/10 03:32:26;;;;;;;8.75;6.93;;;;;;;12.02;100.00;96940.69;4952340;28;20036;-76
2023/06/10 03:34:56;;;;;;;9.40;7.95;;;;;;;11.89;100.00;96942.06;4964928;28;20582;-76
2023/06/10 03:37:25;;;;;;;9.43;7.68;;;;;;;11.87;100.00;96949.63;4965554;28;20039;-76
2023/06/10 03:39:52;;;;;;;10.10;7.60;;;;;;;11.84;100.00;96948.28;4953003;28;20047;-76
2023/06/10 03:42:19;;;;;;;9.77;6.85;;;;;;;11.97;100.00;96951.53;4955264;28;20047;-76
2023/06/10 03:44:46;;;;;;;11.65;7.80;;;;;;;12.00;100.00;96950.19;4959023;28;20573;-76
2023/06/10 03:47:12;;;;;;;11.85;7.53;;;;;;;12.05;99.82;96950.19;4950155;28;20051;-76
2023/06/10 03:49:40;;;;;;;10.10;7.90;;;;;;;12.02;100.00;96956.16;4952258;28;20043;-75
2023/06/10 03:52:07;;;;;;;11.65;7.47;;;;;;;12.00;100.00;96953.72;4957036;28;20461;-76
2023/06/10 03:54:34;;;;;;;10.93;7.43;;;;;;;11.87;100.00;96960.47;4963105;28;20053;-76
2023/06/10 03:57:02;;;;;;;10.27;7.25;;;;;;;11.86;100.00;96958.06;4955979;28;20407;-76
2023/06/10 03:59:29;;;;;;;9.20;7.32;;;;;;;11.87;100.00;96959.69;4961652;28;20035;-75
2023/06/10 04:01:56;;;;;;;9.63;7.35;;;;;;;11.96;100.00;96960.78;4964125;28;20035;-76
2023/06/10 04:04:23;;;;;;;9.73;7.60;;;;;;;11.98;100.00;96961.31;4959669;28;20549;-76
2023/06/10 04:06:50;;;;;;;9.35;7.15;;;;;;;12.04;100.00;96962.94;4952441;28;20079;-76
2023/06/10 04:09:17;;;;;;;8.57;7.50;;;;;;;11.99;100.00;96965.66;4962024;28;20043;-76
2023/06/10 04:11:44;;;;;;;10.38;7.93;;;;;;;12.02;100.00;96962.38;4959658;28;20043;-76
2023/06/10 04:14:10;;;;;;;8.68;7.05;;;;;;;12.18;100.00;96967.84;4963593;28;20421;-76
2023/06/10 04:16:39;;;;;;;9.38;7.35;;;;;;;12.23;100.00;96965.94;4966667;28;20070;-76
2023/06/10 04:19:05;;;;;;;8.82;7.40;;;;;;;12.25;100.00;96960.25;4975692;28;20071;-76
2023/06/10 04:21:32;;;;;;;9.95;6.95;;;;;;;12.25;100.00;96959.44;4956777;28;20051;-76
2023/06/10 04:23:59;;;;;;;11.65;7.47;;;;;;;12.37;99.82;96959.97;4961832;28;20469;-76
2023/06/10 04:26:27;;;;;;;10.98;7.20;;;;;;;12.46;99.75;96958.31;4957834;28;20049;-76
2023/06/10 04:28:54;;;;;;;9.45;7.25;;;;;;;12.53;99.55;96962.66;4965204;28;20054;-76
2023/06/10 04:31:21;;;;;;;8.27;7.25;;;;;;;12.66;98.46;96964.78;4976420;28;20387;-76
2023/06/10 04:33:48;;;;;;;8.32;6.53;;;;;;;12.75;99.13;96970.47;4963148;28;20047;-75
2023/06/10 04:36:15;;;;;;;10.15;6.90;;;;;;;12.71;99.22;96966.66;4953657;28;20414;-76
2023/06/10 04:38:41;;;;;;;10.55;6.72;;;;;;;12.86;98.41;96971.25;4953771;28;20043;-76
2023/06/10 04:41:08;;;;;;;9.70;6.90;;;;;;;12.94;98.73;96972.59;4956365;28;20097;-76
2023/06/10 04:43:35;;;;;;;6.85;5.57;;;;;;;13.06;98.10;96966.84;4956751;28;20034;-76
2023/06/10 04:46:02;;;;;;;8.15;6.57;;;;;;;13.18;97.89;96970.03;4963228;28;20063;-75
2023/06/10 04:48:30;;;;;;;8.43;6.00;;;;;;;13.23;97.93;96961.06;4958247;28;20043;-75
2023/06/10 04:50:58;;;;;;;8.05;6.57;;;;;;;13.30;98.86;96967.00;4933035;28;20083;-76
2023/06/10 04:53:25;;;;;;;8.90;6.25;;;;;;;13.40;99.61;96961.50;4947810;28;20039;-76
2023/06/10 04:55:51;;;;;;;8.63;6.30;;;;;;;13.55;99.29;96964.44;4948818;28;20051;-76
2023/06/10 04:58:18;;;;;;;9.77;6.00;;;;;;;13.65;99.74;96959.75;4946458;28;20118;-77
2023/06/10 05:00:44;;;;;;;10.07;6.72;;;;;;;13.82;99.15;96968.63;4949422;28;20050;-76
2023/06/10 05:03:11;;;;;;;8.50;6.00;;;;;;;14.02;98.92;96976.66;4948725;28;20043;-76
2023/06/10 05:05:38;;;;;;;7.95;5.60;;;;;;;14.17;98.37;96972.16;4953729;28;20049;-76
2023/06/10 05:08:04;;;;;;;7.15;5.70;;;;;;;14.29;98.21;96977.22;4951707;28;20073;-76
2023/06/10 05:10:34;;;;;;;7.30;5.82;;;;;;;14.42;96.35;96983.94;4958618;28;20510;-76
2023/06/10 05:13:02;;;;;;;10.30;5.90;;;;;;;14.52;96.96;96980.31;4956657;28;20046;-76
2023/06/10 05:15:30;;;;;;;8.10;5.43;;;;;;;14.63;97.00;96981.03;4962259;28;20039;-76
2023/06/10 05:17:58;;;;;;;9.48;6.22;;;;;;;14.73;97.64;96982.81;4963971;28;20051;-75
2023/06/10 05:20:25;;;;;;;9.35;5.32;;;;;;;14.83;97.36;96978.09;4960676;28;20043;-76
2023/06/10 05:22:52;;;;;;;7.30;5.03;;;;;;;14.93;96.64;96968.97;4959355;28;20055;-76
2023/06/10 05:25:19;;;;;;;6.55;5.00;;;;;;;15.06;93.29;96978.38;4949846;28;20035;-76
2023/06/10 05:27:45;;;;;;;6.43;4.82;;;;;;;15.20;90.89;96975.78;4951054;28;20118;-76
2023/06/10 05:30:12;;;;;;;6.75;5.47;;;;;;;15.37;89.63;96984.56;4948581;28;20043;-76
2023/06/10 05:32:39;;;;;;;9.27;5.47;;;;;;;15.53;87.83;96988.72;4960448;28;20111;-76
2023/06/10 05:35:06;;;;;;;5.85;4.03;;;;;;;15.67;87.38;96980.59;4960297;28;20047;-76
2023/06/10 05:37:34;;;;;;;7.28;5.13;;;;;;;15.83;85.65;96989.38;4966730;28;20117;-76
2023/06/10 05:40:01;;;;;;;8.27;5.20;;;;;;;16.15;84.42;96988.94;4960052;28;20043;-75
2023/06/10 05:42:27;;;;;;;6.05;4.65;;;;;;;16.28;82.58;96990.09;4958398;28;20057;-75
2023/06/10 05:44:54;;;;;;;6.05;4.75;;;;;;;16.54;82.32;96989.66;4965162;28;20057;-76
2023/06/10 05:47:20;;;;;;;6.32;4.65;;;;;;;16.85;81.39;96991.81;4955840;28;20090;-76
2023/06/10 05:49:49;;;;;;;6.13;4.68;;;;;;;17.15;78.89;96992.38;4952581;28;20467;-76
2023/06/10 05:52:15;;;;;;;6.55;4.38;;;;;;;17.26;77.68;96990.22;4961616;28;20035;-76
2023/06/10 05:54:42;;;;;;;5.82;4.32;;;;;;;17.33;77.64;96993.38;4965440;28;20125;-76
2023/06/10 05:57:08;;;;;;;6.03;4.30;;;;;;;17.44;78.38;96999.44;4961789;28;20098;-76
2023/06/10 05:59:35;;;;;;;6.43;4.72;;;;;;;17.52;78.03;96998.72;4960734;28;20042;-76
2023/06/10 06:02:02;;;;;;;5.93;4.85;;;;;;;17.67;77.17;96994.00;4961202;28;20648;-75
2023/06/10 06:04:28;;;;;;;6.70;4.90;;;;;;;17.77;77.56;97003.94;4959248;28;20399;-76
2023/06/10 06:06:55;;;;;;;7.47;5.15;;;;;;;17.86;76.82;96999.34;4950320;28;20130;-76
2023/06/10 06:09:21;;;;;;;7.90;4.97;;;;;;;17.96;76.58;97001.03;4959904;28;20050;-76
2023/06/10 06:11:48;;;;;;;7.53;5.93;;;;;;;18.00;76.54;97001.22;4961114;28;20495;-76
2023/06/10 06:14:14;;;;;;;9.00;5.20;;;;;;;18.03;76.69;96993.19;4960160;28;20086;-76
2023/06/10 06:16:41;;;;;;;7.07;5.07;;;;;;;18.06;77.01;97002.72;4959731;28;20071;-76
2023/06/10 06:19:09;;;;;;;5.97;4.70;;;;;;;18.08;75.64;96995.03;4956571;28;20039;-76
2023/06/10 06:21:35;;;;;;;7.65;5.00;;;;;;;18.18;76.10;97002.19;4961146;28;20446;-76
2023/06/10 06:24:02;;;;;;;7.78;5.07;;;;;;;18.30;76.26;97001.63;4961391;28;20274;-76
2023/06/10 06:26:29;;;;;;;6.10;4.97;;;;;;;18.26;74.99;97012.41;4948884;28;20047;-77
2023/06/10 06:28:55;;;;;;;7.72;5.28;;;;;;;18.40;75.30;97009.63;4957982;28;20050;-76
2023/06/10 06:31:21;;;;;;;8.35;4.72;;;;;;;18.44;74.08;97009.78;4963457;28;20061;-76
2023/06/10 06:33:48;;;;;;;7.72;4.72;;;;;;;18.43;73.77;97010.91;4961229;28;20058;-76
2023/06/10 06:36:15;;;;;;;8.70;4.75;;;;;;;18.58;74.66;97005.03;4961956;28;20512;-76
2023/06/10 06:38:41;;;;;;;7.60;5.15;;;;;;;18.81;73.46;97006.94;4952973;28;20043;-76
2023/06/10 06:41:08;;;;;;;8.95;5.13;;;;;;;18.93;72.36;97009.91;4961788;28;20061;-76
2023/06/10 06:43:34;;;;;;;6.47;5.25;;;;;;;19.00;72.59;97014.09;4955722;28;20038;-76
2023/06/10 06:46:19;;;;;;;6.28;4.80;;;;;;;19.09;71.42;97004.03;4961252;28;20482;-76
2023/06/10 06:48:46;;;;;;;6.35;4.70;;;;;;;19.24;71.31;97016.50;4961504;28;20039;-76
2023/06/10 06:51:13;;;;;;;6.30;4.70;;;;;;;19.34;70.78;97018.94;4962116;28;20046;-76
2023/06/10 06:53:44;;;;;;;7.15;5.28;;;;;;;19.35;70.79;97012.31;4960313;28;20490;-76
2023/06/10 06:56:11;;;;;;;6.00;4.75;;;;;;;19.44;71.12;97017.84;4950580;28;20055;-76
2023/06/10 06:58:38;;;;;;;6.47;5.00;;;;;;;19.59;69.22;97018.53;4962567;28;20038;-76
2023/06/10 07:01:05;;;;;;;9.95;5.60;;;;;;;19.63;69.45;97025.00;4956182;28;20047;-76
2023/06/10 07:03:31;;;;;;;7.38;5.07;;;;;;;19.70;68.61;97014.34;4951269;28;20031;-76
2023/06/10 07:05:58;;;;;;;7.70;4.90;;;;;;;19.76;67.68;97012.25;4949951;28;20043;-76
2023/06/10 07:08:25;;;;;;;7.70;5.05;;;;;;;19.78;67.24;97018.22;4951999;28;20537;-76
2023/06/10 07:10:51;;;;;;;8.05;5.05;;;;;;;19.74;67.60;97022.75;4962870;28;20062;-76
2023/06/10 07:13:18;;;;;;;6.40;5.32;;;;;;;19.71;68.17;97015.13;4959257;28;20034;-76
2023/06/10 07:15:44;;;;;;;6.50;4.88;;;;;;;19.75;68.41;97016.94;4960009;28;20046;-76
2023/06/10 07:18:11;;;;;;;6.53;4.72;;;;;;;19.96;67.29;97027.31;4958283;28;20038;-76
2023/06/10 07:20:37;;;;;;;7.32;5.18;;;;;;;20.19;67.14;97023.63;4951395;28;20054;-76
2023/06/10 07:23:04;;;;;;;8.02;5.40;;;;;;;20.30;65.84;97024.09;4956466;28;20048;-76
2023/06/10 07:25:30;;;;;;;7.00;5.13;;;;;;;20.42;65.85;97020.69;4953676;28;20050;-76
2023/06/10 07:27:57;;;;;;;7.93;4.90;;;;;;;20.49;65.83;97021.78;4958075;28;20437;-76
2023/06/10 07:30:23;;;;;;;7.07;4.80;;;;;;;20.66;65.47;97017.41;4965867;28;20047;-76
2023/06/10 07:32:51;;;;;;;7.80;5.05;;;;;;;20.74;64.75;97021.25;4957596;28;20117;-76
2023/06/10 07:35:17;;;;;;;6.95;5.00;;;;;;;20.75;64.11;97020.94;4949504;28;20046;-76
2023/06/10 07:37:44;;;;;;;6.50;4.80;;;;;;;20.82;63.72;97025.13;4960130;28;20098;-76
2023/06/10 07:40:11;;;;;;;6.35;4.75;;;;;;;20.80;63.25;97025.47;4960797;28;20505;-76
2023/06/10 07:42:37;;;;;;;6.45;4.68;;;;;;;20.87;63.08;97025.81;4958339;28;20040;-76
2023/06/10 07:45:04;;;;;;;6.95;4.40;;;;;;;20.82;63.36;97023.19;4957540;28;20043;-76
2023/06/10 07:47:34;;;;;;;6.47;4.55;;;;;;;20.89;63.77;97023.50;4960934;28;20105;-76
2023/06/10 07:50:01;;;;;;;5.60;4.43;;;;;;;20.97;61.93;97029.31;4969465;28;20047;-76
2023/06/10 07:52:28;;;;;;;6.78;4.57;;;;;;;20.96;62.05;97027.72;4963623;28;20078;-76
2023/06/10 07:54:55;;;;;;;5.20;4.18;;;;;;;20.90;62.12;97024.34;4966553;28;20035;-76
2023/06/10 07:57:21;;;;;;;6.50;4.28;;;;;;;20.96;61.64;97017.50;4958258;28;20047;-76
2023/06/10 07:59:48;;;;;;;5.30;4.22;;;;;;;21.02;60.48;97012.63;4955642;28;20486;-76
2023/06/10 08:02:15;;;;;;;6.03;4.15;;;;;;;21.16;61.07;97018.72;4960626;28;20039;-76
2023/06/10 08:04:41;;;;;;;5.57;4.28;;;;;;;21.28;60.31;97020.78;4953486;28;20494;-76
2023/06/10 08:07:08;;;;;;;6.55;4.30;;;;;;;21.24;59.80;97019.00;5000417;22;20045;-62
2023/06/10 08:09:34;;;;;;;5.55;4.40;;;;;;;21.27;60.65;97021.09;5039994;28;20048;-63
2023/06/10 08:12:02;;;;;;;10.45;6.97;;;;;;;21.43;59.55;97015.84;5028201;28;20407;-63
2023/06/10 08:14:28;;;;;;;8.02;5.38;;;;;;;21.50;60.04;97012.56;5030745;28;20041;-64
2023/06/10 08:16:55;;;;;;;5.90;4.43;;;;;;;21.50;59.88;97018.06;5028162;28;20045;-64
2023/06/10 08:19:22;;;;;;;6.32;4.80;;;;;;;21.57;60.06;97016.38;5041828;28;20048;-63
2023/06/10 08:21:48;;;;;;;5.65;4.13;;;;;;;21.82;61.03;97013.03;5026902;28;20096;-63
2023/06/10 08:24:17;;;;;;;7.10;4.70;;;;;;;21.83;59.12;97020.16;5038586;28;20042;-64
2023/06/10 08:26:44;;;;;;;6.40;4.32;;;;;;;21.95;57.74;97020.22;5035676;28;20041;-63
2023/06/10 08:29:12;;;;;;;11.85;4.55;;;;;;;21.94;57.99;97018.63;5031343;28;20049;-62
2023/06/10 08:31:43;;;;;;;6.55;4.25;;;;;;;22.01;58.64;97020.84;5032187;28;20045;-62
2023/06/10 08:34:10;;;;;;;5.75;4.28;;;;;;;22.07;57.49;97024.19;5035147;28;20099;-63
2023/06/10 08:36:36;;;;;;;7.18;3.67;;;;;;;22.16;56.57;97022.19;5037879;28;20033;-62
2023/06/10 08:39:03;;;;;;;6.35;3.85;;;;;;;22.12;57.18;97023.19;5030376;28;20041;-62
2023/06/10 08:41:36;;;;;;;5.00;3.70;;;;;;;22.14;56.90;97023.63;5027497;28;20611;-63
2023/06/10 08:44:20;;;;;;;6.30;4.18;;;;;;;22.15;56.79;97025.28;5030254;28;20116;-64
2023/06/10 08:46:48;;;;;;;6.85;4.18;;;;;;;22.31;56.51;97028.22;5036243;28;20511;-64
2023/06/10 08:49:18;;;;;;;7.75;4.65;;;;;;;22.32;56.73;97022.38;5037521;28;20068;-62
2023/06/10 08:51:45;;;;;;;7.05;4.78;;;;;;;22.33;56.37;97015.69;5041659;28;20439;-62
2023/06/10 08:54:20;;;;;;;6.13;4.22;;;;;;;22.33;56.68;97023.97;5035883;28;20033;-63
2023/06/10 08:56:49;;;;;;;5.50;3.92;;;;;;;22.41;57.11;97021.47;5032936;28;20045;-63
2023/06/10 08:59:17;;;;;;;5.95;4.28;;;;;;;22.45;56.50;97022.41;5026550;28;20069;-64
2023/06/10 09:01:44;;;;;;;5.95;4.55;;;;;;;22.58;56.53;97010.31;5031988;28;20079;-63
2023/06/10 09:04:11;;;;;;;6.63;4.22;;;;;;;22.59;56.84;97005.59;5031254;28;20046;-63
2023/06/10 09:06:39;;;;;;;7.90;4.45;;;;;;;22.59;56.32;97013.88;5034441;28;20049;-64
2023/06/10 09:09:07;;;;;;;6.38;4.97;;;;;;;22.68;56.50;97011.81;5039318;28;20040;-63
2023/06/10 09:11:33;;;;;;;6.10;4.10;;;;;;;22.74;56.03;97007.69;5040155;28;20041;-64
2023/06/10 09:14:00;;;;;;;6.82;4.40;;;;;;;22.84;55.89;97011.16;5032343;28;20049;-63
2023/06/10 09:16:28;;;;;;;31.35;24.50;;;;;;;22.83;54.12;97010.38;5030096;28;20048;-64
2023/06/10 09:18:55;;;;;;;7.05;4.63;;;;;;;23.03;54.31;97001.53;5026694;28;20037;-62
2023/06/10 09:21:22;;;;;;;5.78;4.22;;;;;;;23.20;53.24;97006.03;5026751;28;20045;-64
2023/06/10 09:23:49;;;;;;;6.70;5.10;;;;;;;23.10;53.35;97004.50;5033497;28;20044;-63
2023/06/10 09:26:18;;;;;;;6.35;4.50;;;;;;;23.24;53.79;97004.19;5038762;28;20502;-62
2023/06/10 09:28:48;;;;;;;5.70;4.40;;;;;;;23.21;53.17;97007.63;5041984;28;20444;-62
2023/06/10 09:31:18;;;;;;;6.00;4.38;;;;;;;23.28;54.08;97005.09;5036881;28;20252;-62
2023/06/10 09:33:45;;;;;;;5.53;4.28;;;;;;;23.37;52.86;97008.59;5026367;28;20115;-63
2023/06/10 09:36:21;;;;;;;5.93;4.25;;;;;;;23.48;53.70;97005.38;5036971;28;20090;-62
2023/06/10 09:38:50;;;;;;;6.47;3.90;;;;;;;23.63;52.90;97004.66;5031594;28;20039;-63
2023/06/10 09:41:17;;;;;;;5.93;4.57;;;;;;;23.69;52.35;96998.91;5036956;28;20312;-62
2023/06/10 09:43:46;;;;;;;6.88;4.40;;;;;;;23.63;52.57;97003.84;5036599;28;20053;-62
2023/06/10 09:46:17;;;;;;;6.30;4.32;;;;;;;23.59;51.49;96989.13;5039968;28;20045;-62
2023/06/10 09:48:45;;;;;;;6.03;4.30;;;;;;;23.77;51.37;96992.44;5033908;28;20447;-61
2023/06/10 09:51:13;;;;;;;6.30;4.78;;;;;;;23.86;51.52;97000.59;5035588;28;20221;-61
2023/06/10 09:53:40;;;;;;;6.25;4.43;;;;;;;24.09;50.74;97000.88;5034120;28;20051;-62
2023/06/10 09:56:06;;;;;;;6.25;4.22;;;;;;;24.20;51.75;96994.84;5028032;28;20136;-61
2023/06/10 09:58:37;;;;;;;5.68;4.40;;;;;;;24.14;51.16;96992.34;5025730;28;20052;-61
2023/06/10 10:01:12;;;;;;;7.97;4.57;;;;;;;24.14;50.58;96994.31;5025349;28;20045;-62
2023/06/10 10:03:50;;;;;;;5.85;4.50;;;;;;;24.12;51.85;96993.84;5032631;28;20060;-62
2023/06/10 10:06:18;;;;;;;7.70;5.03;;;;;;;24.16;52.10;96990.03;5034311;28;20041;-62
2023/06/10 10:08:47;;;;;;;5.57;4.38;;;;;;;24.42;51.40;96985.19;5034120;28;20052;-61
2023/06/10 10:11:19;;;;;;;6.88;4.63;;;;;;;24.70;50.25;96981.59;5025759;28;20129;-61
2023/06/10 10:13:48;;;;;;;5.90;3.75;;;;;;;24.33;48.80;96988.13;5030537;28;20049;-62
2023/06/10 10:16:17;;;;;;;7.25;4.53;;;;;;;24.10;50.22;96988.66;5028234;28;20052;-62
2023/06/10 10:18:51;;;;;;;6.13;4.35;;;;;;;24.03;50.43;96980.94;5025531;28;20042;-61
2023/06/10 10:21:23;;;;;;;7.80;4.40;;;;;;;24.14;50.14;96986.03;5032773;28;20037;-61
2023/06/10 10:24:02;;;;;;;5.55;4.18;;;;;;;24.30;49.68;96980.53;5036564;28;20099;-62
2023/06/10 10:26:32;;;;;;;5.47;4.05;;;;;;;24.37;48.84;96977.16;5021592;28;20065;-63
2023/06/10 10:29:07;;;;;;;5.28;4.00;;;;;;;24.51;48.23;96974.75;5024992;28;20103;-62
2023/06/10 10:31:35;;;;;;;5.78;4.22;;;;;;;24.36;49.13;96986.63;5027449;28;20588;-61
2023/06/10 10:34:06;;;;;;;5.68;3.95;;;;;;;24.42;49.24;96988.78;5027413;28;20119;-61
2023/06/10 10:36:34;;;;;;;6.93;4.43;;;;;;;24.36;47.40;96981.88;5028254;28;20135;-62
2023/06/10 10:39:03;;;;;;;8.52;4.32;;;;;;;24.55;47.65;96977.66;5034780;28;20050;-62
2023/06/10 10:41:32;;;;;;;7.93;4.50;;;;;;;24.89;47.76;96980.13;5029769;28;20052;-62
2023/06/10 10:44:00;;;;;;;5.80;4.10;;;;;;;25.14;46.45;96982.72;5036482;28;20045;-62
2023/06/10 10:46:26;;;;;;;5.63;4.57;;;;;;;25.09;46.15;96981.00;5039285;28;20120;-62
2023/06/10 10:48:56;;;;;;;5.78;3.78;;;;;;;25.14;46.08;96972.41;5038280;28;20071;-61
2023/06/10 10:51:24;;;;;;;6.22;3.95;;;;;;;24.97;44.83;96979.13;5036308;28;20438;-61
2023/06/10 10:54:11;;;;;;;5.85;3.90;;;;;;;25.02;45.36;96980.84;5030926;28;20056;-61
2023/06/10 10:56:38;;;;;;;5.03;4.13;;;;;;;25.15;44.50;96968.50;5035625;28;20040;-62
2023/06/10 10:59:05;;;;;;;5.53;3.90;;;;;;;25.16;44.47;96966.53;5036417;28;20044;-62
2023/06/10 11:01:45;;;;;;;5.28;3.75;;;;;;;25.20;44.70;96967.41;5033068;28;20061;-61
2023/06/10 11:04:12;;;;;;;5.50;3.95;;;;;;;25.09;44.23;96977.44;5040619;28;20048;-64
2023/06/10 11:06:39;;;;;;;7.05;4.30;;;;;;;24.95;44.71;96970.41;5035590;28;20473;-62
2023/06/10 11:10:00;;;;;;;5.60;3.90;;;;;;;24.95;44.98;96964.84;5034435;28;20508;-62
2023/06/10 11:12:45;;;;;;;5.93;3.95;;;;;;;25.29;44.60;96967.22;4984553;28;20046;-62
2023/06/10 11:15:29;;;;;;;8.95;4.13;;;;;;;25.35;43.99;96965.00;5031809;28;20045;-62
2023/06/10 11:18:19;;;;;;;5.32;3.47;;;;;;;25.29;43.98;96956.16;5031157;28;20037;-61
2023/06/10 11:20:51;;;;;;;6.82;3.88;;;;;;;25.18;43.73;96969.75;5040768;28;20044;-62
2023/06/10 11:23:27;;;;;;;6.55;3.75;;;;;;;25.58;43.40;96960.41;5031802;28;20044;-62
2023/06/10 11:26:16;;;;;;;4.88;3.55;;;;;;;25.67;42.66;96962.97;5040000;28;20577;-62
2023/06/10 11:29:04;;;;;;;4.50;3.10;;;;;;;25.64;42.69;96954.56;5031621;28;20040;-61
2023/06/10 11:31:38;;;;;;;5.95;4.10;;;;;;;25.56;43.35;96964.66;5024290;28;20065;-62
2023/06/10 11:34:07;;;;;;;5.47;3.88;;;;;;;25.56;43.10;96961.91;5037840;28;20399;-62
2023/06/10 11:36:37;;;;;;;6.25;3.90;;;;;;;25.58;43.37;96959.63;5045805;28;20037;-62